This is the latest recevied weather packets stored in our database for station/object OE3WYC-1. If no packets are shown the sender has not sent any weather packets the latest 10 day(s).
| Time | Temp. | Humidity | Pressure | Rain* | Wind** | Luminosity | Snow |
|---|---|---|---|---|---|---|---|
| 1777738805 | 22.78° C | 32% | 1018.5 hPa | 0 mm | - | - | - |
| 1777737604 | 22.78° C | 32% | 1018.8 hPa | 0 mm | - | - | - |
| 1777736704 | 22.78° C | 32% | 1018.9 hPa | 0 mm | - | - | - |
| 1777732805 | 23.33° C | 32% | 1019.5 hPa | 0 mm | - | - | - |
| 1777731305 | 23.33° C | 32% | 1019.8 hPa | 0 mm | - | - | - |
| 1777730406 | 23.33° C | 33% | 1020 hPa | 0 mm | - | - | - |
| 1777728605 | 23.89° C | 34% | 1020.4 hPa | 0 mm | - | - | - |
| 1777727405 | 23.33° C | 33% | 1020.7 hPa | 0 mm | - | - | - |
| 1777724704 | 23.33° C | 35% | 1021.4 hPa | 0 mm | - | - | - |
| 1777723505 | 23.33° C | 34% | 1021.8 hPa | 0 mm | - | - | - |
| 1777722905 | 23.33° C | 35% | 1021.7 hPa | 0 mm | - | - | - |
| 1777719305 | 22.78° C | 37% | 1022.7 hPa | 0 mm | - | - | - |
| 1777718405 | 22.22° C | 38% | 1022.7 hPa | 0 mm | - | - | - |
| 1777717805 | 22.22° C | 38% | 1023.1 hPa | 0 mm | - | - | - |
| 1777717205 | 22.22° C | 40% | 1023 hPa | 0 mm | - | - | - |
| 1777714804 | 21.67° C | 41% | 1023.7 hPa | 0 mm | - | - | - |
| 1777714206 | 21.11° C | 43% | 1023.7 hPa | 0 mm | - | - | - |
| 1777711806 | 20° C | 46% | 1024.3 hPa | 0 mm | - | - | - |
| 1777710904 | 19.44° C | 47% | 1024.5 hPa | 0 mm | - | - | - |
| 1777710606 | 19.44° C | 48% | 1024.4 hPa | 0 mm | - | - | - |
| 1777710005 | 18.89° C | 50% | 1024.5 hPa | 0 mm | - | - | - |
| 1777707605 | 17.78° C | 53% | 1024.8 hPa | 0 mm | - | - | - |
| 1777703706 | 14.44° C | 66% | 1025.1 hPa | 0 mm | - | - | - |
| 1777703405 | 13.89° C | 67% | 1024.8 hPa | 0 mm | - | - | - |
| 1777702205 | 12.22° C | 72% | 1024.9 hPa | 0 mm | - | - | - |
* Rain latest hour (hover to see other rain measurements)
** Current wind speed in m/s (hover to see current wind gust speed)